Time;durP1;ratioP1;P1;durP2;ratioP2;P2;SDS_P1;SDS_P2;PMS_P1;PMS_P2;Temp;Humidity;BMP_temperature;BMP_pressure;BME280_temperature;BME280_humidity;BME280_pressure;Samples;Min_cycle;Max_cycle;Signal;HPM_P1;HPM_P2
2021/12/23 00:00:13;;;;;;;54.85;19.90;;;-2.00;74.00;;;;;;4126665;28;20027;-86
2021/12/23 00:02:17;;;;;;;57.30;19.40;;;-2.00;74.10;;;;;;4141177;28;20088;-86
2021/12/23 00:04:20;;;;;;;49.85;19.45;;;-2.00;74.10;;;;;;4111380;28;20110;-86
2021/12/23 00:06:21;;;;;;;55.22;19.80;;;-2.10;74.10;;;;;;4142997;28;20052;-86
2021/12/23 00:08:28;;;;;;;50.08;19.20;;;-2.00;74.20;;;;;;4108173;28;20110;-85
2021/12/23 00:10:29;;;;;;;60.53;19.95;;;-2.10;74.10;;;;;;4124196;28;20035;-86
2021/12/23 00:12:30;;;;;;;59.70;21.95;;;-2.00;74.40;;;;;;4127930;28;20049;-86
2021/12/23 00:14:38;;;;;;;53.83;20.67;;;-2.00;74.40;;;;;;4106531;28;20117;-85
2021/12/23 00:19:00;;;;;;;56.30;18.70;;;-2.00;74.50;;;;;;4111221;28;20054;-85
2021/12/23 00:23:25;;;;;;;60.35;18.70;;;-2.10;74.50;;;;;;4127320;28;20026;-84
2021/12/23 00:25:26;;;;;;;52.72;19.85;;;-2.10;74.50;;;;;;4130978;28;20484;-84
2021/12/23 00:27:34;;;;;;;54.03;19.95;;;-2.10;74.60;;;;;;4113504;28;20038;-84
2021/12/23 00:29:34;;;;;;;60.92;19.77;;;-2.10;74.60;;;;;;4129919;28;20039;-84
2021/12/23 00:31:35;;;;;;;58.88;20.75;;;-2.10;74.70;;;;;;4145584;28;20030;-85
2021/12/23 00:33:36;;;;;;;56.10;20.27;;;-2.10;74.80;;;;;;4144323;28;20038;-85
2021/12/23 00:35:37;;;;;;;52.47;19.25;;;-2.10;74.80;;;;;;4130672;28;20110;-84
2021/12/23 00:37:44;;;;;;;54.55;20.25;;;-2.10;74.90;;;;;;4127628;28;20046;-84
2021/12/23 00:39:45;;;;;;;59.55;20.40;;;-2.10;74.90;;;;;;4113658;28;20033;-85
2021/12/23 00:41:46;;;;;;;58.53;20.02;;;-2.10;74.90;;;;;;4129575;28;20031;-84
2021/12/23 00:43:47;;;;;;;57.75;20.00;;;-2.10;75.00;;;;;;4129339;28;20045;-84
2021/12/23 00:45:50;;;;;;;60.10;18.58;;;-2.10;75.00;;;;;;4132605;28;20023;-85
2021/12/23 00:47:51;;;;;;;51.13;19.23;;;-2.10;75.00;;;;;;4119376;28;20037;-85
2021/12/23 00:49:52;;;;;;;51.13;19.58;;;-2.00;75.10;;;;;;4127082;28;20035;-85
2021/12/23 00:51:54;;;;;;;51.40;19.15;;;-2.10;75.00;;;;;;4127397;28;20088;-84
2021/12/23 00:54:03;;;;;;;56.60;19.98;;;-2.10;75.00;;;;;;4130621;28;20027;-84
2021/12/23 00:56:27;;;;;;;50.75;19.10;;;-2.10;75.00;;;;;;4127313;28;20031;-84
2021/12/23 00:58:33;;;;;;;48.20;18.85;;;-2.10;75.00;;;;;;4130596;28;20064;-84
2021/12/23 01:00:34;;;;;;;49.63;18.20;;;-2.10;75.10;;;;;;4116048;28;20106;-85
2021/12/23 01:02:35;;;;;;;47.65;19.10;;;-2.00;75.10;;;;;;4126171;28;20034;-84
2021/12/23 01:04:38;;;;;;;44.95;17.88;;;-2.00;75.90;;;;;;4117281;28;20078;-85
2021/12/23 01:06:38;;;;;;;50.50;18.50;;;-2.10;75.10;;;;;;4134016;28;20098;-84
2021/12/23 01:08:39;;;;;;;48.42;18.35;;;-2.10;75.10;;;;;;4133597;28;20109;-84
2021/12/23 01:10:46;;;;;;;46.35;17.92;;;-2.10;75.10;;;;;;4118309;28;20109;-85
2021/12/23 01:12:58;;;;;;;48.92;18.95;;;-2.10;75.10;;;;;;4103363;28;20102;-86
2021/12/23 01:15:17;;;;;;;48.67;18.27;;;-2.00;75.20;;;;;;4147445;28;20193;-86
2021/12/23 01:18:06;;;;;;;51.20;19.77;;;-2.00;75.20;;;;;;4109922;28;20377;-85
2021/12/23 01:20:10;;;;;;;52.22;18.52;;;-2.10;75.10;;;;;;4131988;28;20022;-84
2021/12/23 01:22:14;;;;;;;50.63;19.17;;;-2.00;75.10;;;;;;4100451;28;20034;-85
2021/12/23 01:24:21;;;;;;;53.28;18.83;;;-2.00;75.10;;;;;;4132692;28;20163;-85
2021/12/23 01:26:31;;;;;;;51.45;18.98;;;-2.00;74.90;;;;;;4105140;28;20034;-85
2021/12/23 01:28:35;;;;;;;54.75;19.25;;;-2.00;75.00;;;;;;4115952;28;20078;-84
2021/12/23 01:31:03;;;;;;;48.20;17.52;;;-2.00;75.00;;;;;;4128982;28;20030;-84
2021/12/23 01:33:07;;;;;;;53.67;19.73;;;-2.00;75.00;;;;;;4101627;28;20669;-85
2021/12/23 01:35:24;;;;;;;56.50;19.25;;;-2.00;75.00;;;;;;4116322;28;20062;-84
2021/12/23 01:37:38;;;;;;;56.17;20.42;;;-2.00;75.00;;;;;;4097524;28;20075;-84
2021/12/23 01:39:41;;;;;;;52.55;19.33;;;-1.90;75.10;;;;;;4119322;28;20167;-84
2021/12/23 01:41:45;;;;;;;50.63;18.23;;;-2.00;75.00;;;;;;4115111;28;20583;-85
2021/12/23 01:44:03;;;;;;;53.08;19.52;;;-2.00;75.10;;;;;;4102670;28;20555;-86
2021/12/23 01:46:08;;;;;;;51.50;19.80;;;-2.00;75.00;;;;;;4100105;28;20070;-86
2021/12/23 01:48:17;;;;;;;51.47;17.27;;;-2.00;75.00;;;;;;4113560;28;20031;-84
2021/12/23 01:50:20;;;;;;;54.95;19.67;;;-2.00;75.70;;;;;;4131408;28;20019;-85
2021/12/23 01:52:39;;;;;;;51.13;19.23;;;-1.90;75.10;;;;;;4128727;28;20034;-85
2021/12/23 01:54:40;;;;;;;49.30;18.45;;;-2.00;75.10;;;;;;4119761;28;20406;-85
2021/12/23 01:56:44;;;;;;;48.55;18.85;;;-2.00;75.10;;;;;;4131520;28;20026;-85
2021/12/23 01:58:53;;;;;;;49.67;19.17;;;-2.00;75.10;;;;;;4150004;28;20090;-85
2021/12/23 02:01:04;;;;;;;49.05;19.15;;;-2.00;75.10;;;;;;4103540;28;20127;-85
2021/12/23 02:03:18;;;;;;;51.83;19.63;;;-2.00;75.10;;;;;;4101402;28;20082;-85
2021/12/23 02:05:21;;;;;;;52.42;19.90;;;-2.00;75.20;;;;;;4118476;28;20034;-85
2021/12/23 02:07:26;;;;;;;48.90;18.13;;;-1.90;75.30;;;;;;4086889;29;20090;-84
2021/12/23 02:09:29;;;;;;;53.03;20.23;;;-1.90;75.30;;;;;;4118947;28;20029;-85
2021/12/23 02:11:30;;;;;;;47.65;18.67;;;-1.90;75.30;;;;;;4156654;23;20049;-84
2021/12/23 02:13:31;;;;;;;55.70;20.20;;;-2.00;75.40;;;;;;4146189;28;20096;-84
2021/12/23 02:15:31;;;;;;;50.33;20.75;;;-2.00;75.40;;;;;;4126164;28;20313;-85
2021/12/23 02:17:34;;;;;;;52.55;19.60;;;-2.00;75.40;;;;;;4130111;28;20057;-85
2021/12/23 02:19:35;;;;;;;57.50;21.23;;;-2.00;75.40;;;;;;4133894;28;20037;-85
2021/12/23 02:21:36;;;;;;;53.58;20.23;;;-2.00;75.50;;;;;;4135316;28;20038;-85
2021/12/23 02:23:36;;;;;;;49.78;20.27;;;-2.00;75.50;;;;;;4128163;28;20057;-85
2021/12/23 02:25:37;;;;;;;53.33;20.92;;;-1.90;75.50;;;;;;4109925;28;20045;-85
2021/12/23 02:27:38;;;;;;;49.38;20.27;;;-1.90;75.60;;;;;;4143724;28;20080;-84
2021/12/23 02:29:38;;;;;;;52.88;21.02;;;-2.00;75.50;;;;;;4125538;28;20069;-85
2021/12/23 02:31:39;;;;;;;51.35;20.10;;;-2.00;75.60;;;;;;4097092;28;20034;-85
2021/12/23 02:33:40;;;;;;;54.47;21.08;;;-1.90;75.60;;;;;;4142290;28;20115;-85
2021/12/23 02:35:40;;;;;;;50.90;21.15;;;-1.90;75.60;;;;;;4127008;28;20093;-85
2021/12/23 02:37:42;;;;;;;54.28;21.65;;;-1.90;75.60;;;;;;4130491;28;20042;-85
2021/12/23 02:39:42;;;;;;;59.90;22.52;;;-1.90;76.40;;;;;;4142842;28;20042;-85
2021/12/23 02:41:43;;;;;;;56.63;21.67;;;-1.90;75.60;;;;;;4142736;28;20061;-85
2021/12/23 02:43:44;;;;;;;54.42;20.98;;;-1.90;75.60;;;;;;4127900;28;20035;-85
2021/12/23 02:45:46;;;;;;;55.28;22.13;;;-1.80;75.70;;;;;;4144757;28;20034;-84
2021/12/23 02:47:47;;;;;;;56.55;22.13;;;-1.90;75.60;;;;;;4130461;28;20084;-85
2021/12/23 02:49:47;;;;;;;56.15;21.40;;;-1.80;75.70;;;;;;4144879;28;20484;-85
2021/12/23 02:51:48;;;;;;;53.85;21.95;;;-1.90;75.60;;;;;;4131879;28;20035;-84
2021/12/23 02:53:49;;;;;;;56.55;20.95;;;-1.80;75.70;;;;;;4130475;28;20037;-84
2021/12/23 02:55:49;;;;;;;63.88;20.75;;;-1.80;75.70;;;;;;4148261;28;20038;-83
2021/12/23 02:57:50;;;;;;;51.97;20.77;;;-1.80;75.70;;;;;;4131961;28;20044;-84
2021/12/23 02:59:51;;;;;;;48.72;19.85;;;-1.80;75.70;;;;;;4115362;28;20030;-84
2021/12/23 03:01:52;;;;;;;53.67;21.83;;;-1.80;75.70;;;;;;4145474;28;20073;-84
2021/12/23 03:03:53;;;;;;;51.63;20.83;;;-1.80;75.70;;;;;;4135077;28;20034;-84
2021/12/23 03:05:54;;;;;;;58.67;23.25;;;-1.70;76.50;;;;;;4146257;28;20036;-85
2021/12/23 03:07:55;;;;;;;54.33;22.25;;;-1.70;75.70;;;;;;4144973;28;20058;-85
2021/12/23 03:09:56;;;;;;;52.78;21.77;;;-1.70;75.70;;;;;;4140669;28;20096;-85
2021/12/23 03:11:56;;;;;;;53.92;22.38;;;-1.70;75.70;;;;;;4119049;28;20509;-85
2021/12/23 03:13:57;;;;;;;71.22;26.90;;;-1.80;75.70;;;;;;4101904;28;20047;-85
2021/12/23 03:15:58;;;;;;;53.95;22.77;;;-1.70;75.80;;;;;;4127998;28;20526;-86
2021/12/23 03:17:59;;;;;;;57.33;23.35;;;-1.70;75.80;;;;;;4130891;28;20027;-84
2021/12/23 03:20:00;;;;;;;58.13;23.20;;;-1.60;75.90;;;;;;4129713;28;20173;-84
2021/12/23 03:22:01;;;;;;;55.83;21.58;;;-1.70;75.80;;;;;;4128824;28;20030;-84
2021/12/23 03:24:01;;;;;;;52.80;21.27;;;-1.70;75.80;;;;;;4142308;28;20699;-85
2021/12/23 03:26:02;;;;;;;53.95;21.90;;;-1.70;75.80;;;;;;4130172;28;20026;-85
2021/12/23 03:28:03;;;;;;;47.40;20.25;;;-1.70;75.80;;;;;;4129414;28;20034;-84
2021/12/23 03:30:05;;;;;;;51.72;20.05;;;-1.70;75.80;;;;;;4143436;28;20025;-84
2021/12/23 03:32:06;;;;;;;52.95;21.00;;;-1.70;75.90;;;;;;4128943;28;20033;-85
2021/12/23 03:34:07;;;;;;;52.83;21.15;;;-1.70;75.90;;;;;;4142519;28;20559;-85
2021/12/23 03:36:08;;;;;;;50.55;20.95;;;-1.70;76.00;;;;;;4126845;28;20046;-85
2021/12/23 03:38:08;;;;;;;51.10;20.90;;;-1.60;76.00;;;;;;4128049;28;20022;-86
2021/12/23 03:40:09;;;;;;;64.70;25.02;;;-1.60;76.10;;;;;;4143002;28;20549;-85
2021/12/23 03:42:10;;;;;;;56.55;22.35;;;-1.60;76.00;;;;;;4111034;28;20082;-85
2021/12/23 03:44:10;;;;;;;59.53;22.02;;;-1.50;76.10;;;;;;4138248;28;20404;-85
2021/12/23 03:46:11;;;;;;;52.05;21.23;;;-1.50;76.10;;;;;;4109093;28;20425;-85
2021/12/23 03:48:12;;;;;;;46.45;19.92;;;-1.50;76.00;;;;;;4140100;28;20034;-84
2021/12/23 03:50:13;;;;;;;55.15;22.10;;;-1.50;76.00;;;;;;4138284;28;20034;-85
2021/12/23 03:52:14;;;;;;;51.60;19.70;;;-1.40;76.00;;;;;;4142851;28;20041;-86
2021/12/23 03:54:14;;;;;;;53.95;19.92;;;-1.40;76.00;;;;;;4126865;28;20517;-87
2021/12/23 03:56:18;;;;;;;57.35;20.73;;;-1.40;76.00;;;;;;4124959;28;20083;-85
2021/12/23 03:58:20;;;;;;;50.17;20.05;;;-1.40;75.90;;;;;;4136506;28;20046;-84
2021/12/23 04:00:22;;;;;;;50.35;20.50;;;-1.30;75.90;;;;;;4141082;28;20076;-85
2021/12/23 04:02:23;;;;;;;52.13;19.80;;;-1.20;75.80;;;;;;4144657;28;20022;-84
2021/12/23 04:04:24;;;;;;;49.40;20.80;;;-1.30;75.60;;;;;;4140392;28;20049;-84
2021/12/23 04:06:26;;;;;;;47.72;19.60;;;-1.30;75.50;;;;;;4128524;28;20034;-84
2021/12/23 04:08:27;;;;;;;55.28;21.15;;;-1.30;75.50;;;;;;4124948;28;20097;-85
2021/12/23 04:10:28;;;;;;;46.55;19.23;;;-1.20;75.50;;;;;;4124751;28;20405;-85
2021/12/23 04:12:28;;;;;;;51.35;19.35;;;-1.20;75.40;;;;;;4124059;28;20077;-85
2021/12/23 04:14:29;;;;;;;51.85;20.83;;;-1.20;75.40;;;;;;4125304;28;20023;-85
2021/12/23 04:16:29;;;;;;;51.40;20.10;;;-1.20;75.30;;;;;;4143931;28;20026;-85
2021/12/23 04:18:30;;;;;;;49.72;20.20;;;-1.20;75.10;;;;;;4122913;28;20062;-84
2021/12/23 04:20:35;;;;;;;48.63;19.15;;;-1.20;75.10;;;;;;4127331;28;20078;-84
2021/12/23 04:22:37;;;;;;;49.45;21.38;;;-1.20;75.10;;;;;;4126811;28;20517;-85
2021/12/23 04:24:38;;;;;;;50.83;20.53;;;-1.20;75.00;;;;;;4143541;28;20042;-84
2021/12/23 04:26:38;;;;;;;51.60;21.50;;;-1.20;75.00;;;;;;4126476;28;20026;-84
2021/12/23 04:28:46;;;;;;;49.33;20.13;;;-1.10;74.90;;;;;;4146800;28;20029;-83
2021/12/23 04:30:47;;;;;;;48.05;20.23;;;-1.10;74.90;;;;;;4134639;28;20032;-84
2021/12/23 04:32:48;;;;;;;48.78;18.92;;;-1.20;74.90;;;;;;4148212;28;20029;-84
2021/12/23 04:34:49;;;;;;;54.30;20.90;;;-1.10;75.00;;;;;;4130133;28;20050;-84
2021/12/23 04:36:50;;;;;;;51.85;20.52;;;-1.10;75.00;;;;;;4145566;28;20121;-84
2021/12/23 04:38:51;;;;;;;46.15;20.15;;;-1.20;74.80;;;;;;4133626;28;20110;-86
2021/12/23 04:40:51;;;;;;;49.97;19.17;;;-1.10;74.80;;;;;;4142804;28;20030;-85
2021/12/23 04:42:52;;;;;;;53.50;21.38;;;-1.10;74.70;;;;;;4143049;28;20061;-85
2021/12/23 04:44:53;;;;;;;46.25;19.60;;;-1.10;74.70;;;;;;4125678;28;20049;-84
2021/12/23 04:46:54;;;;;;;53.85;21.15;;;-1.10;74.50;;;;;;4130193;28;20073;-85
2021/12/23 04:48:54;;;;;;;48.70;19.65;;;-1.10;74.50;;;;;;4131005;28;20030;-83
2021/12/23 04:50:55;;;;;;;56.80;21.75;;;-1.10;74.50;;;;;;4127548;28;20339;-82
2021/12/23 04:52:56;;;;;;;54.78;21.02;;;-1.10;74.50;;;;;;4142829;28;20034;-83
2021/12/23 04:54:57;;;;;;;49.97;20.20;;;-1.10;74.50;;;;;;4106915;28;20035;-82
2021/12/23 04:56:57;;;;;;;49.63;19.27;;;-1.10;74.40;;;;;;4127540;28;20073;-83
2021/12/23 04:58:58;;;;;;;44.85;18.88;;;-1.00;74.40;;;;;;4128420;28;20040;-85
2021/12/23 05:00:59;;;;;;;44.00;18.58;;;-1.10;74.40;;;;;;4102733;28;20031;-85
2021/12/23 05:02:59;;;;;;;46.10;19.02;;;-1.00;74.40;;;;;;4129957;28;20485;-85
2021/12/23 05:05:00;;;;;;;49.60;20.33;;;-1.00;74.40;;;;;;4141167;28;20026;-85
2021/12/23 05:07:01;;;;;;;44.30;19.17;;;-1.00;74.20;;;;;;4150154;28;20026;-85
2021/12/23 05:09:02;;;;;;;47.47;18.95;;;-1.00;74.10;;;;;;4128777;28;20479;-85
2021/12/23 05:11:02;;;;;;;50.17;20.48;;;-1.00;74.10;;;;;;4146563;28;20030;-85
2021/12/23 05:13:03;;;;;;;47.63;21.35;;;-1.00;74.00;;;;;;4141411;28;20037;-85
2021/12/23 05:15:05;;;;;;;42.92;18.80;;;-1.00;73.90;;;;;;4147406;28;20034;-85
2021/12/23 05:17:05;;;;;;;46.15;18.75;;;-1.00;73.90;;;;;;4133129;28;20035;-84
2021/12/23 05:19:06;;;;;;;44.17;18.52;;;-1.00;74.00;;;;;;4143165;28;20202;-85
2021/12/23 05:21:06;;;;;;;44.97;18.42;;;-1.10;73.90;;;;;;4128807;28;20515;-85
2021/12/23 05:23:07;;;;;;;47.13;20.00;;;-1.00;73.90;;;;;;4122963;28;20026;-85
2021/12/23 05:25:08;;;;;;;46.65;19.80;;;-1.10;73.70;;;;;;4131651;28;20129;-85
2021/12/23 05:27:09;;;;;;;48.45;20.85;;;-1.10;73.70;;;;;;4104288;28;20083;-85
2021/12/23 05:29:11;;;;;;;51.92;21.33;;;-1.00;73.70;;;;;;4126644;28;20027;-86
2021/12/23 05:31:12;;;;;;;46.95;19.40;;;-1.10;73.60;;;;;;4143784;28;20033;-84
2021/12/23 05:33:12;;;;;;;48.08;19.23;;;-1.10;73.70;;;;;;4155606;28;20097;-84
2021/12/23 05:35:14;;;;;;;53.25;20.98;;;-1.10;73.80;;;;;;4143347;28;20029;-84
2021/12/23 05:37:15;;;;;;;52.05;20.95;;;-1.20;73.70;;;;;;4156581;28;20014;-83
2021/12/23 05:39:15;;;;;;;50.42;20.20;;;-1.10;73.90;;;;;;4108651;28;20501;-84
2021/12/23 05:41:16;;;;;;;48.10;20.42;;;-1.20;74.60;;;;;;4139089;28;20098;-83
2021/12/23 05:43:17;;;;;;;49.33;20.45;;;-1.20;73.80;;;;;;4121988;28;20023;-85
2021/12/23 05:45:17;;;;;;;44.55;18.77;;;-1.20;73.90;;;;;;4159024;28;20030;-84
2021/12/23 05:47:18;;;;;;;49.83;19.83;;;-1.20;73.90;;;;;;4145266;28;20102;-84
2021/12/23 05:49:18;;;;;;;52.53;20.38;;;-1.20;74.00;;;;;;4160130;28;20033;-86
2021/12/23 05:51:19;;;;;;;49.50;20.10;;;-1.20;74.10;;;;;;4111448;28;20051;-85
2021/12/23 05:53:20;;;;;;;43.88;19.23;;;-1.20;74.10;;;;;;4136076;28;20030;-84
2021/12/23 05:55:21;;;;;;;44.85;17.85;;;-1.20;74.10;;;;;;4132510;28;21010;-86
2021/12/23 05:57:21;;;;;;;44.58;18.60;;;-1.20;74.10;;;;;;4123628;28;20039;-87
2021/12/23 05:59:22;;;;;;;48.00;20.05;;;-1.20;74.20;;;;;;4128748;28;20061;-85
2021/12/23 06:01:23;;;;;;;45.47;19.73;;;-1.20;74.10;;;;;;4125839;28;20030;-85
2021/12/23 06:03:24;;;;;;;44.30;18.73;;;-1.20;74.20;;;;;;4122786;28;20034;-85
2021/12/23 06:05:25;;;;;;;47.60;19.35;;;-1.20;74.20;;;;;;4139355;28;20036;-85
2021/12/23 06:07:26;;;;;;;50.67;20.88;;;-1.20;74.10;;;;;;4107817;28;20030;-85
2021/12/23 06:09:26;;;;;;;46.65;19.17;;;-1.20;74.00;;;;;;4112001;28;20045;-85
2021/12/23 06:11:27;;;;;;;47.28;19.42;;;-1.20;74.10;;;;;;4125315;28;20533;-86
2021/12/23 06:13:28;;;;;;;49.20;20.15;;;-1.20;74.10;;;;;;4122725;28;20058;-85
2021/12/23 06:15:28;;;;;;;47.90;20.50;;;-1.20;74.10;;;;;;4141274;28;20063;-85
2021/12/23 06:17:29;;;;;;;46.25;19.42;;;-1.20;74.10;;;;;;4139961;28;20080;-85
2021/12/23 06:19:30;;;;;;;47.05;19.73;;;-1.30;74.00;;;;;;4138436;28;20492;-85
2021/12/23 06:21:32;;;;;;;41.65;17.33;;;-1.20;74.10;;;;;;4125012;28;20433;-85
2021/12/23 06:23:32;;;;;;;47.95;19.35;;;-1.20;74.10;;;;;;4126331;28;20444;-85
2021/12/23 06:25:33;;;;;;;44.63;18.38;;;-1.20;74.20;;;;;;4108192;28;20023;-85
2021/12/23 06:27:34;;;;;;;45.30;18.88;;;-1.20;74.30;;;;;;4123728;28;20338;-85
2021/12/23 06:29:34;;;;;;;40.42;17.20;;;-1.20;74.40;;;;;;4142541;28;20034;-85
2021/12/23 06:31:35;;;;;;;42.70;18.42;;;-1.20;74.40;;;;;;4137519;28;20400;-85
2021/12/23 06:33:36;;;;;;;42.88;18.50;;;-1.10;74.50;;;;;;4108344;28;20074;-86
2021/12/23 06:35:36;;;;;;;43.25;18.67;;;-1.20;74.40;;;;;;4091622;28;20039;-85
2021/12/23 06:37:37;;;;;;;42.97;18.88;;;-1.10;74.40;;;;;;4095683;28;20031;-85
2021/12/23 06:39:39;;;;;;;40.00;18.27;;;-1.10;75.10;;;;;;4138964;28;20050;-86
2021/12/23 06:41:40;;;;;;;44.90;17.85;;;-1.10;74.30;;;;;;4111369;28;20050;-85
2021/12/23 06:43:40;;;;;;;42.30;17.73;;;-1.10;74.20;;;;;;4136330;28;20046;-85
2021/12/23 06:45:41;;;;;;;38.38;16.38;;;-1.10;75.00;;;;;;4137344;28;20120;-85
2021/12/23 06:47:43;;;;;;;47.97;18.42;;;-1.10;74.20;;;;;;4103026;28;20558;-85
2021/12/23 06:49:44;;;;;;;47.92;19.25;;;-1.10;74.10;;;;;;4119414;28;20038;-84
2021/12/23 06:51:45;;;;;;;44.92;18.88;;;-1.10;74.00;;;;;;4117964;28;20408;-85
2021/12/23 06:53:47;;;;;;;44.95;18.88;;;-1.10;74.00;;;;;;4134104;28;20045;-84
2021/12/23 06:55:50;;;;;;;42.72;17.90;;;-1.10;73.90;;;;;;4136212;28;20037;-85
2021/12/23 06:57:55;;;;;;;44.33;18.50;;;-1.10;73.80;;;;;;4120666;28;20084;-85
2021/12/23 06:59:56;;;;;;;40.05;17.90;;;-1.10;73.80;;;;;;4125684;28;20117;-85
2021/12/23 07:01:57;;;;;;;43.33;18.00;;;-1.10;73.70;;;;;;4121435;28;20129;-85
2021/12/23 07:06:06;;;;;;;;;;;-1.10;73.70;;;;;;4106649;28;20033;-85
2021/12/23 07:08:12;;;;;;;42.95;19.17;;;-1.00;73.80;;;;;;4122838;28;19914;-86
2021/12/23 07:10:14;;;;;;;40.08;17.23;;;-1.00;73.80;;;;;;4137633;28;20049;-84
2021/12/23 07:12:15;;;;;;;43.88;18.13;;;-1.10;73.70;;;;;;4135878;28;20420;-85
2021/12/23 07:14:15;;;;;;;38.13;16.83;;;-1.00;73.90;;;;;;4138771;28;20034;-85
2021/12/23 07:16:16;;;;;;;39.40;17.30;;;-1.00;73.80;;;;;;4138574;28;20115;-85
2021/12/23 07:18:17;;;;;;;37.15;16.55;;;-1.00;73.90;;;;;;4123579;28;20039;-85
2021/12/23 07:20:21;;;;;;;44.75;16.45;;;-1.00;73.90;;;;;;4138613;28;20276;-85
2021/12/23 07:22:22;;;;;;;42.15;16.50;;;-1.00;73.90;;;;;;4105984;28;20035;-85
2021/12/23 07:24:22;;;;;;;42.20;17.98;;;-1.00;73.90;;;;;;4141864;28;20644;-85
2021/12/23 07:26:23;;;;;;;40.60;17.92;;;-0.90;73.90;;;;;;4123830;28;20037;-85
2021/12/23 07:28:24;;;;;;;43.13;18.35;;;-1.00;73.70;;;;;;4136278;28;20522;-85
2021/12/23 07:30:24;;;;;;;38.63;17.17;;;-0.90;73.80;;;;;;4122678;28;20124;-85
2021/12/23 07:32:25;;;;;;;39.53;18.52;;;-1.00;73.70;;;;;;4119104;28;20030;-85
2021/12/23 07:34:26;;;;;;;37.83;16.58;;;-1.00;73.70;;;;;;4135718;28;20037;-85
2021/12/23 07:36:27;;;;;;;44.17;17.02;;;-0.90;73.80;;;;;;4122430;28;20422;-85
2021/12/23 07:38:28;;;;;;;41.92;17.85;;;-0.90;73.80;;;;;;4123570;28;20030;-85
2021/12/23 07:40:29;;;;;;;48.08;19.17;;;-0.90;73.80;;;;;;4137186;28;20201;-85
2021/12/23 07:42:32;;;;;;;44.03;17.83;;;-0.90;73.80;;;;;;4122658;28;20039;-84
2021/12/23 07:44:33;;;;;;;42.90;18.43;;;-0.90;73.70;;;;;;4123111;28;20023;-85
2021/12/23 07:46:35;;;;;;;46.33;19.10;;;-0.80;73.80;;;;;;4136511;28;20520;-85
2021/12/23 07:48:36;;;;;;;48.33;19.10;;;-0.90;73.70;;;;;;4124641;28;20024;-86
2021/12/23 07:50:37;;;;;;;42.13;17.15;;;-0.80;73.70;;;;;;4108401;28;20113;-86
2021/12/23 07:52:38;;;;;;;41.33;17.63;;;-0.90;73.50;;;;;;4122874;28;20038;-85
2021/12/23 07:54:38;;;;;;;46.17;18.08;;;-0.80;73.70;;;;;;4141789;28;20098;-85
2021/12/23 07:56:39;;;;;;;44.70;17.98;;;-0.80;73.60;;;;;;4137680;28;20070;-85
2021/12/23 07:58:40;;;;;;;44.85;17.95;;;-0.80;73.50;;;;;;4124077;28;20038;-85
2021/12/23 08:00:41;;;;;;;51.65;18.25;;;-0.80;73.50;;;;;;4138784;28;20389;-85
2021/12/23 08:02:42;;;;;;;42.95;17.13;;;-0.80;73.50;;;;;;4138423;28;20097;-85
2021/12/23 08:04:43;;;;;;;38.78;17.08;;;-0.80;73.50;;;;;;4140024;28;20026;-85
2021/12/23 08:06:51;;;;;;;41.22;17.73;;;-0.80;73.40;;;;;;4120313;28;20038;-85
2021/12/23 08:08:52;;;;;;;43.63;17.45;;;-0.70;73.50;;;;;;4133706;28;20139;-84
2021/12/23 08:10:54;;;;;;;43.60;17.48;;;-0.70;73.50;;;;;;4118532;28;20091;-85
2021/12/23 08:12:54;;;;;;;40.65;16.58;;;-0.70;73.40;;;;;;4176801;23;20049;-82
2021/12/23 08:14:55;;;;;;;38.03;16.00;;;-0.70;73.50;;;;;;4133980;28;20050;-81
2021/12/23 08:16:56;;;;;;;38.28;16.70;;;-0.70;73.50;;;;;;4138914;28;20025;-83
2021/12/23 08:19:00;;;;;;;40.60;17.95;;;-0.50;73.70;;;;;;4154146;28;20057;-83
2021/12/23 08:21:01;;;;;;;45.83;17.83;;;-0.60;73.60;;;;;;4132711;28;20026;-83
2021/12/23 08:23:05;;;;;;;46.58;18.48;;;-0.60;73.50;;;;;;4158558;28;20093;-83
2021/12/23 08:25:11;;;;;;;46.53;18.33;;;-0.60;73.40;;;;;;4133662;28;20046;-83
2021/12/23 08:27:11;;;;;;;43.85;18.83;;;-0.60;73.50;;;;;;4133482;28;20145;-82
2021/12/23 08:29:17;;;;;;;43.38;17.85;;;-0.70;73.60;;;;;;4129887;28;20027;-83
2021/12/23 08:31:26;;;;;;;42.88;18.48;;;-0.70;73.80;;;;;;4130127;28;20528;-83
2021/12/23 08:33:29;;;;;;;40.80;17.55;;;-0.70;74.10;;;;;;4134378;28;20076;-82
2021/12/23 08:35:30;;;;;;;36.30;16.05;;;-0.60;74.50;;;;;;4117404;28;20035;-83
2021/12/23 08:37:48;;;;;;;40.63;17.58;;;-0.60;74.80;;;;;;4257731;27;20752;-82
2021/12/23 08:40:08;;;;;;;39.55;15.70;;;-0.60;75.00;;;;;;4229915;28;20053;-82
2021/12/23 08:42:11;;;;;;;42.75;17.88;;;-0.60;75.10;;;;;;4214958;28;20201;-83
2021/12/23 08:44:20;;;;;;;40.87;16.17;;;-0.50;75.20;;;;;;4211180;28;20125;-83
2021/12/23 08:46:22;;;;;;;37.25;15.77;;;-0.50;75.30;;;;;;4196692;28;20282;-82
2021/12/23 08:48:22;;;;;;;37.38;15.90;;;-0.50;75.30;;;;;;4193506;28;20749;-82
2021/12/23 08:50:26;;;;;;;;;;;-0.40;75.50;;;;;;4212375;28;20542;-82
2021/12/23 08:52:29;;;;;;;44.78;15.50;;;-0.30;75.70;;;;;;4212609;28;20405;-84
2021/12/23 08:54:30;;;;;;;39.42;15.75;;;-0.30;75.50;;;;;;4212750;28;20111;-83
2021/12/23 08:56:36;;;;;;;38.72;16.17;;;-0.30;75.50;;;;;;4196958;28;20067;-84
2021/12/23 08:58:37;;;;;;;40.53;15.48;;;-0.30;75.50;;;;;;4195866;28;20028;-84
2021/12/23 09:00:41;;;;;;;34.80;15.23;;;-0.30;75.50;;;;;;4204496;28;20093;-84
2021/12/23 09:02:42;;;;;;;36.80;14.98;;;-0.20;75.50;;;;;;4191131;28;20562;-84
2021/12/23 09:04:49;;;;;;;36.03;15.50;;;-0.20;75.50;;;;;;4213415;28;20083;-83
2021/12/23 09:06:50;;;;;;;33.03;14.55;;;-0.20;75.40;;;;;;4195679;28;20068;-84
2021/12/23 09:08:53;;;;;;;35.50;15.10;;;-0.20;75.40;;;;;;4218081;28;20054;-84
2021/12/23 09:10:56;;;;;;;37.05;15.25;;;-0.10;75.50;;;;;;4242914;27;20035;-84
2021/12/23 09:12:57;;;;;;;37.22;16.02;;;-0.10;75.40;;;;;;4221821;28;20094;-85
2021/12/23 09:15:04;;;;;;;38.80;16.98;;;-0.10;75.40;;;;;;4229352;28;20048;-84
2021/12/23 09:17:07;;;;;;;34.83;14.45;;;-0.10;75.30;;;;;;4208104;27;20040;-84
2021/12/23 09:19:09;;;;;;;38.47;14.80;;;0.00;75.30;;;;;;4241477;28;20034;-84
2021/12/23 09:21:12;;;;;;;34.28;14.93;;;-0.10;75.30;;;;;;4221630;28;20081;-85
2021/12/23 09:23:13;;;;;;;40.88;15.93;;;-0.10;75.30;;;;;;4242017;27;20030;-84
2021/12/23 09:25:24;;;;;;;36.75;16.25;;;0.00;75.30;;;;;;4244077;28;20477;-84
2021/12/23 09:27:50;;;;;;;36.17;15.45;;;0.00;75.20;;;;;;4210909;28;20028;-83
2021/12/23 09:34:12;;;;;;;34.78;14.50;;;0.00;75.20;;;;;;4225306;27;20034;-84
2021/12/23 09:36:13;;;;;;;31.73;14.38;;;0.00;75.20;;;;;;4222016;28;20032;-84
2021/12/23 09:38:13;;;;;;;30.13;14.50;;;0.10;76.00;;;;;;4208411;28;20160;-84
2021/12/23 09:40:15;;;;;;;41.25;14.70;;;0.10;75.20;;;;;;4222395;28;20020;-84
2021/12/23 09:42:15;;;;;;;36.42;14.60;;;0.10;75.30;;;;;;4211520;28;20032;-83
2021/12/23 09:44:26;;;;;;;35.08;15.05;;;0.10;75.30;;;;;;4220763;28;20133;-85
2021/12/23 09:46:27;;;;;;;38.22;15.88;;;0.10;75.30;;;;;;4224599;28;20170;-83
2021/12/23 09:48:32;;;;;;;39.78;15.50;;;0.20;75.30;;;;;;4212008;28;20035;-84
2021/12/23 09:50:39;;;;;;;44.17;14.85;;;0.20;75.90;;;;;;4196687;28;20025;-84
2021/12/23 09:53:00;;;;;;;36.58;15.55;;;0.20;75.00;;;;;;4201729;28;20040;-84
2021/12/23 09:55:03;;;;;;;36.42;15.75;;;0.20;74.90;;;;;;4211429;28;20108;-83
2021/12/23 09:57:04;;;;;;;34.17;14.55;;;0.20;74.80;;;;;;4209668;28;20525;-85
2021/12/23 09:59:06;;;;;;;29.77;13.98;;;0.30;75.60;;;;;;4214064;28;20162;-85
2021/12/23 10:01:07;;;;;;;34.85;15.18;;;0.30;74.60;;;;;;4223875;28;20020;-84
2021/12/23 10:03:08;;;;;;;37.35;15.65;;;0.30;74.50;;;;;;4208846;28;20028;-84
2021/12/23 10:05:13;;;;;;;32.17;14.35;;;0.30;74.50;;;;;;4232144;28;20032;-84
2021/12/23 10:07:14;;;;;;;39.50;15.80;;;0.30;74.30;;;;;;4207656;28;20027;-83
2021/12/23 10:09:28;;;;;;;37.05;15.40;;;0.20;74.80;;;;;;4208094;28;20040;-84
2021/12/23 10:30:39;;;;;;;29.73;13.23;;;0.10;74.50;;;;;;4213102;28;20288;-84
2021/12/23 10:37:13;;;;;;;30.48;13.98;;;0.20;74.50;;;;;;4178388;28;20135;-85
2021/12/23 10:40:27;;;;;;;;;;;;;;;;;;;;;
2021/12/23 10:43:30;;;;;;;31.50;14.95;;;0.10;74.10;;;;;;4215522;28;20054;-85
2021/12/23 10:49:47;;;;;;;32.28;14.30;;;0.00;73.70;;;;;;4128202;28;20044;-85
2021/12/23 10:53:12;;;;;;;36.35;14.48;;;0.00;73.90;;;;;;4188729;28;20122;-85
2021/12/23 10:59:02;;;;;;;35.05;13.82;;;0.00;74.00;;;;;;4191560;28;20062;-83
2021/12/23 11:01:16;;;;;;;37.25;16.00;;;-0.10;73.90;;;;;;4196206;28;20062;-84
2021/12/23 11:08:30;;;;;;;36.30;14.38;;;-0.10;74.10;;;;;;4171951;28;20083;-84
2021/12/23 11:39:07;;;;;;;34.13;14.57;;;0.20;74.50;;;;;;4195546;28;20405;-84
2021/12/23 11:41:33;;;;;;;30.70;13.02;;;0.30;74.40;;;;;;4175653;28;20032;-85
2021/12/23 11:46:10;;;;;;;31.13;13.75;;;0.30;74.20;;;;;;4196134;28;20035;-85
2021/12/23 11:48:31;;;;;;;32.28;14.32;;;0.30;74.10;;;;;;4180890;28;20137;-85